createdAt,value
2022-08-09T00:02:29.667Z,4.22
2022-08-09T00:07:31.606Z,2.83
2022-08-09T00:12:46.628Z,3.30
2022-08-09T00:18:05.425Z,2.80
2022-08-09T00:23:56.010Z,2.72
2022-08-09T00:28:35.221Z,4.43
2022-08-09T00:33:50.521Z,2.83
2022-08-09T00:38:53.157Z,4.30
2022-08-09T00:44:19.799Z,5.07
2022-08-09T00:49:16.521Z,1.42
2022-08-09T00:54:19.567Z,8.25
2022-08-09T00:59:41.378Z,3.45
2022-08-09T01:04:57.951Z,5.45
2022-08-09T01:10:05.058Z,3.63
2022-08-09T01:15:17.055Z,4.35
2022-08-09T01:20:43.156Z,3.78
2022-08-09T01:26:09.003Z,4.07
2022-08-09T01:32:29.084Z,4.82
2022-08-09T01:36:40.176Z,2.40
2022-08-09T01:41:53.468Z,3.55
2022-08-09T01:47:00.871Z,2.33
2022-08-09T01:52:06.972Z,3.85
2022-08-09T01:57:16.333Z,3.15
2022-08-09T02:02:23.601Z,3.60
2022-08-09T02:08:40.559Z,5.10
2022-08-09T02:13:02.902Z,5.25
2022-08-09T02:18:10.612Z,3.53
2022-08-09T02:23:23.214Z,3.30
2022-08-09T02:28:37.759Z,3.65
2022-08-09T02:34:07.043Z,5.57
2022-08-09T02:39:14.369Z,3.40
2022-08-09T02:44:29.343Z,3.95
2022-08-09T02:49:41.451Z,5.97
2022-08-09T02:54:54.480Z,4.80
2022-08-09T03:00:21.278Z,6.35
2022-08-09T03:05:22.937Z,3.30
2022-08-09T03:10:26.963Z,3.45
2022-08-09T03:15:40.479Z,4.18
2022-08-09T03:20:52.243Z,5.70
2022-08-09T03:26:03.264Z,3.80
2022-08-09T03:31:21.033Z,6.10
2022-08-09T03:36:27.552Z,3.40
2022-08-09T03:41:45.844Z,5.05
2022-08-09T03:46:50.412Z,5.22
2022-08-09T03:52:00.080Z,4.07
2022-08-09T03:57:18.627Z,5.88
2022-08-09T04:02:27.942Z,4.78
2022-08-09T04:07:47.210Z,7.72
2022-08-09T04:12:53.910Z,5.13
2022-08-09T04:17:57.787Z,4.85
2022-08-09T04:22:59.776Z,4.05
2022-08-09T04:28:03.531Z,4.53
2022-08-09T04:33:05.539Z,4.47
2022-08-09T04:38:23.433Z,5.10
2022-08-09T04:43:25.778Z,4.82
2022-08-09T04:48:33.733Z,4.80
2022-08-09T04:53:35.322Z,8.93
2022-08-09T04:58:37.926Z,6.80
2022-08-09T05:03:42.632Z,5.97
2022-08-09T05:08:47.824Z,5.30
2022-08-09T05:13:49.729Z,8.13
2022-08-09T05:18:59.138Z,7.38
2022-08-09T05:24:03.982Z,7.60
2022-08-09T05:29:06.485Z,5.28
2022-08-09T05:34:08.065Z,6.85
2022-08-09T05:39:28.194Z,6.55
2022-08-09T05:44:32.658Z,9.80
2022-08-09T05:50:26.836Z,6.28
2022-08-09T05:54:57.943Z,6.30
2022-08-09T06:00:07.914Z,5.72
2022-08-09T06:05:13.887Z,4.50
2022-08-09T06:10:17.915Z,6.95
2022-08-09T06:15:19.810Z,4.20
2022-08-09T06:20:21.751Z,5.90
2022-08-09T06:25:23.959Z,4.90
2022-08-09T06:30:25.669Z,8.52
2022-08-09T06:35:55.834Z,4.45
2022-08-09T06:40:49.905Z,6.03
2022-08-09T06:46:06.904Z,5.13
2022-08-09T06:51:12.281Z,5.43
2022-08-09T06:56:16.401Z,4.38
2022-08-09T07:01:21.497Z,7.55
2022-08-09T07:06:28.038Z,6.20
2022-08-09T07:11:45.634Z,8.32
2022-08-09T07:16:58.017Z,12.27
2022-08-09T07:22:01.170Z,5.30
2022-08-09T07:27:04.203Z,8.02
2022-08-09T07:32:12.828Z,4.68
2022-08-09T07:37:15.845Z,4.68
2022-08-09T07:42:18.047Z,5.55
2022-08-09T07:47:21.050Z,4.45
2022-08-09T07:52:22.812Z,7.22
2022-08-09T07:57:35.895Z,6.22
2022-08-09T08:02:42.397Z,3.28
2022-08-09T08:08:43.396Z,4.45
2022-08-09T08:13:06.182Z,2.75
2022-08-09T08:18:14.378Z,3.70
2022-08-09T08:23:18.565Z,2.25
2022-08-09T08:28:25.697Z,1.48
2022-08-09T08:33:52.231Z,1.48
2022-08-09T08:38:56.356Z,2.03
2022-08-09T08:44:02.482Z,2.72
2022-08-09T08:49:05.825Z,2.13
2022-08-09T08:54:10.170Z,2.40
2022-08-09T08:59:22.024Z,5.15
2022-08-09T09:05:57.520Z,2.13
2022-08-09T09:10:44.959Z,1.48
2022-08-09T09:15:51.409Z,3.75
2022-08-09T09:20:59.094Z,1.02
2022-08-09T09:26:11.975Z,1.77
2022-08-09T09:32:06.131Z,3.70
2022-08-09T09:36:49.656Z,1.48
2022-08-09T09:41:57.297Z,1.13
2022-08-09T09:47:09.078Z,1.08
2022-08-09T09:52:53.591Z,2.65
2022-08-09T09:58:02.799Z,0.90
2022-08-09T10:08:27.751Z,2.47
2022-08-09T10:14:30.579Z,2.08
2022-08-09T10:19:36.881Z,1.13
2022-08-09T10:24:40.439Z,2.55
2022-08-09T10:30:49.413Z,1.70
2022-08-09T10:35:17.741Z,1.70
2022-08-09T10:40:34.957Z,2.25
2022-08-09T10:45:49.273Z,1.70
2022-08-09T10:51:18.399Z,1.15
2022-08-09T10:56:25.794Z,1.42
2022-08-09T11:03:15.933Z,0.88
2022-08-09T11:06:57.806Z,0.47
2022-08-09T11:12:12.610Z,1.38
2022-08-09T11:17:14.182Z,1.58
2022-08-09T11:22:21.572Z,5.07
2022-08-09T11:28:04.172Z,4.80
2022-08-09T11:33:13.686Z,2.28
2022-08-09T11:38:28.668Z,0.30
2022-08-09T11:43:34.918Z,0.55
2022-08-09T11:48:52.178Z,0.93
2022-08-09T11:54:28.542Z,1.23
2022-08-09T11:59:35.455Z,0.82
2022-08-09T12:04:40.265Z,0.50
2022-08-09T12:09:50.838Z,2.00
2022-08-09T12:15:07.657Z,1.23
2022-08-09T12:20:21.331Z,0.68
2022-08-09T12:25:32.055Z,1.55
2022-08-09T12:30:39.761Z,0.88
2022-08-09T12:35:43.030Z,0.50
2022-08-09T12:40:46.616Z,2.72
2022-08-09T12:45:59.979Z,1.70
2022-08-09T12:51:03.957Z,0.75
2022-08-09T12:56:34.880Z,0.77
2022-08-09T13:01:48.981Z,1.30
2022-08-09T13:06:54.153Z,1.42
2022-08-09T13:12:02.551Z,2.22
2022-08-09T13:17:14.166Z,1.45
2022-08-09T13:22:38.314Z,1.83
2022-08-09T13:27:54.904Z,1.58
2022-08-09T13:32:58.107Z,2.40
2022-08-09T13:38:00.266Z,0.55
2022-08-09T13:43:05.113Z,1.83
2022-08-09T13:48:11.186Z,0.90
2022-08-09T13:53:12.826Z,2.45
2022-08-09T13:58:14.594Z,1.08
2022-08-09T14:04:05.499Z,1.02
2022-08-09T14:08:41.202Z,0.93
2022-08-09T14:14:22.379Z,1.55
2022-08-09T14:19:07.237Z,2.38
2022-08-09T14:24:21.993Z,3.47
2022-08-09T14:30:15.123Z,2.03
2022-08-09T14:34:46.922Z,2.03
2022-08-09T14:39:57.579Z,1.95
2022-08-09T14:46:39.673Z,2.70
2022-08-09T14:50:33.182Z,2.05
2022-08-09T14:55:35.959Z,2.47
2022-08-09T15:00:37.722Z,1.67
2022-08-09T15:05:52.290Z,0.98
2022-08-09T15:11:00.269Z,1.42
2022-08-09T15:16:55.191Z,2.80
2022-08-09T15:22:01.614Z,0.95
2022-08-09T15:27:05.497Z,2.25
2022-08-09T15:32:39.253Z,0.93
2022-08-09T15:37:56.858Z,0.80
2022-08-09T15:42:58.746Z,1.80
2022-08-09T15:48:05.103Z,0.80
2022-08-09T15:53:18.530Z,1.13
2022-08-09T15:58:31.071Z,1.67
2022-08-09T16:03:38.585Z,3.00
2022-08-09T16:08:44.559Z,1.40
2022-08-09T16:14:04.958Z,1.10
2022-08-09T16:19:10.304Z,1.15
2022-08-09T16:24:30.033Z,1.13
2022-08-09T16:29:37.903Z,1.70
2022-08-09T16:34:57.769Z,1.10
2022-08-09T16:40:05.525Z,1.88
2022-08-09T16:45:08.271Z,4.07
2022-08-09T16:50:32.601Z,3.15
2022-08-09T16:55:58.494Z,1.60
2022-08-09T17:00:53.550Z,3.28
2022-08-09T17:06:06.911Z,1.77
2022-08-09T17:11:11.195Z,2.63
2022-08-09T17:16:12.767Z,5.10
2022-08-09T17:21:15.261Z,4.18
2022-08-09T17:26:17.681Z,1.48
2022-08-09T17:31:38.964Z,1.17
2022-08-09T17:36:53.428Z,2.22
2022-08-09T17:41:55.416Z,1.33
2022-08-09T17:47:05.975Z,1.35
2022-08-09T17:52:21.968Z,2.03
2022-08-09T17:58:03.585Z,3.13
2022-08-09T18:02:57.990Z,4.38
2022-08-09T18:08:00.365Z,4.35
2022-08-09T18:13:39.363Z,1.85
2022-08-09T18:18:32.609Z,3.72
2022-08-09T18:24:10.694Z,1.60
2022-08-09T18:30:37.881Z,2.95
2022-08-09T18:34:20.342Z,2.15
2022-08-09T18:39:32.325Z,3.08
2022-08-09T18:44:35.828Z,3.70
2022-08-09T18:49:46.734Z,3.28
2022-08-09T18:54:52.911Z,3.63
2022-08-09T19:00:01.676Z,3.78
2022-08-09T19:05:19.681Z,0.68
2022-08-09T19:10:26.847Z,3.00
2022-08-09T19:15:28.452Z,1.75
2022-08-09T19:20:34.169Z,2.13
2022-08-09T19:26:01.079Z,1.20
2022-08-09T19:30:58.451Z,2.00
2022-08-09T19:36:01.700Z,1.50
2022-08-09T19:41:03.498Z,2.13
2022-08-09T19:46:05.850Z,1.55
2022-08-09T19:51:07.582Z,1.63
2022-08-09T19:56:15.421Z,3.50
2022-08-09T20:01:17.530Z,1.42
2022-08-09T20:06:23.689Z,2.88
2022-08-09T20:11:33.945Z,1.20
2022-08-09T20:16:53.182Z,1.20
2022-08-09T20:21:59.957Z,1.80
2022-08-09T20:27:07.925Z,1.50
2022-08-09T20:32:30.808Z,1.23
2022-08-09T20:38:19.450Z,1.55
2022-08-09T20:43:00.147Z,1.65
2022-08-09T20:48:21.113Z,1.02
2022-08-09T20:53:36.587Z,2.70
2022-08-09T20:58:43.511Z,1.20
2022-08-09T21:05:49.246Z,1.45
2022-08-09T21:09:45.567Z,1.90
2022-08-09T21:14:49.165Z,1.17
2022-08-09T21:20:05.077Z,3.92
2022-08-09T21:25:37.754Z,2.08
2022-08-09T21:30:41.300Z,3.00
2022-08-09T21:35:50.658Z,1.67
2022-08-09T21:40:53.461Z,1.00
2022-08-09T21:45:56.421Z,1.92
2022-08-09T21:50:59.893Z,1.65
2022-08-09T21:56:33.641Z,2.15
2022-08-09T22:01:59.168Z,1.38
2022-08-09T22:06:59.248Z,1.55
2022-08-09T22:12:18.511Z,1.85
2022-08-09T22:17:20.628Z,2.38
2022-08-09T22:22:22.819Z,1.70
2022-08-09T22:27:24.620Z,1.33
2022-08-09T22:32:30.229Z,0.95
2022-08-09T22:37:40.601Z,1.35
2022-08-09T22:43:16.902Z,2.13
2022-08-09T22:48:34.415Z,2.83
2022-08-09T22:53:58.431Z,3.17
2022-08-09T22:59:00.699Z,2.80
2022-08-09T23:04:07.271Z,2.88
2022-08-09T23:09:09.013Z,2.15
2022-08-09T23:14:17.359Z,1.58
2022-08-09T23:19:19.225Z,2.37
2022-08-09T23:24:21.288Z,3.55
2022-08-09T23:29:22.900Z,2.08
2022-08-09T23:34:24.709Z,1.73
2022-08-09T23:39:26.271Z,1.90
2022-08-09T23:44:28.085Z,2.00
2022-08-09T23:49:29.629Z,1.73
2022-08-09T23:54:31.504Z,1.92
2022-08-09T23:59:52.307Z,2.42
